Time;durP1;ratioP1;P1;durP2;ratioP2;P2;SDS_P1;SDS_P2;PMS_P1;PMS_P2;Temp;Humidity;BMP_temperature;BMP_pressure;BME280_temperature;BME280_humidity;BME280_pressure;Samples;Min_cycle;Max_cycle;Signal;HPM_P1;HPM_P2
2021/07/02 00:01:16;;;;;;;12.00;8.07;;;;;;;26.21;52.13;93963.92;834508;71;33253;-80
2021/07/02 00:16:09;;;;;;;8.87;7.80;;;;;;;24.40;52.50;93702.11;828223;71;30372;-82
2021/07/02 00:31:09;;;;;;;8.00;7.20;;;;;;;26.15;51.64;93991.83;828170;71;30762;-80
2021/07/02 00:46:12;;;;;;;11.53;7.40;;;;;;;25.78;51.15;94051.69;828738;71;32313;-78
2021/07/02 01:01:15;;;;;;;8.33;7.13;;;;;;;25.35;53.73;94047.96;823669;71;31572;-80
2021/07/02 01:16:12;;;;;;;7.67;6.87;;;;;;;25.24;54.97;94031.13;829649;71;32007;-78
2021/07/02 01:31:15;;;;;;;7.80;7.10;;;;;;;25.35;54.87;94034.53;828253;71;32766;-77
2021/07/02 01:46:09;;;;;;;8.20;6.60;;;;;;;25.29;54.83;94018.06;828339;71;30275;-79
2021/07/02 02:01:18;;;;;;;5.97;5.57;;;;;;;25.37;54.05;94006.11;827823;71;32690;-78
2021/07/02 02:16:08;;;;;;;5.50;5.10;;;;;;;25.49;52.83;93982.05;834587;71;29763;-81
2021/07/02 02:31:08;;;;;;;6.40;5.33;;;;;;;24.50;51.76;93812.44;828574;71;29706;-80
2021/07/02 02:46:08;;;;;;;5.70;5.10;;;;;;;25.72;51.05;93982.80;828358;71;30263;-78
2021/07/02 03:16:15;;;;;;;6.03;4.77;;;;;;;25.58;51.08;94013.83;827548;71;32640;-83
2021/07/02 03:31:09;;;;;;;5.40;4.90;;;;;;;25.66;50.76;94034.70;834137;71;30269;-80
2021/07/02 03:46:09;;;;;;;5.47;5.00;;;;;;;25.72;50.56;94035.80;828385;71;30251;-84
2021/07/02 04:01:11;;;;;;;5.43;4.70;;;;;;;25.92;50.54;94032.78;829741;71;31446;-84
2021/07/02 04:16:16;;;;;;;5.57;5.07;;;;;;;;;;836191;70;32670;-82
2021/07/02 04:31:10;;;;;;;5.63;5.23;;;;;;;26.11;50.39;94074.48;828671;71;30325;-83
2021/07/02 05:01:17;;;;;;;6.47;5.97;;;;;;;;;;828870;71;32693;-87
2021/07/02 13:46:09;;;;;;;5.50;5.00;;;;;;;29.82;35.25;94005.38;831631;71;30206;-84
2021/07/02 14:01:14;;;;;;;5.50;5.20;;;;;;;29.84;35.30;94011.13;796148;72;32125;-84
2021/07/02 14:16:08;;;;;;;5.70;5.30;;;;;;;29.82;35.27;94018.91;829975;71;30169;-81
2021/07/02 14:31:14;;;;;;;6.47;5.90;;;;;;;29.60;35.72;94032.14;828495;71;32783;-78
2021/07/02 14:46:13;;;;;;;5.10;4.80;;;;;;;29.41;35.49;94041.84;827710;71;32637;-81
2021/07/02 15:16:15;;;;;;;5.50;4.90;;;;;;;28.60;37.90;94030.18;834314;71;32667;-81
2021/07/02 15:31:44;;;;;;;6.67;6.17;;;;;;;28.46;36.67;94020.38;822284;71;29767;-81
2021/07/02 15:46:18;;;;;;;5.63;5.07;;;;;;;28.09;35.78;94030.30;827568;71;33194;-80
2021/07/02 16:01:09;;;;;;;5.27;4.90;;;;;;;27.97;37.57;94047.83;828456;71;30334;-80
2021/07/02 16:16:09;;;;;;;5.77;5.37;;;;;;;27.80;38.16;94055.58;828132;71;30783;-79
2021/07/02 16:31:09;;;;;;;5.20;4.90;;;;;;;27.65;37.61;94060.44;835668;71;30294;-80
2021/07/02 16:46:11;;;;;;;5.50;5.10;;;;;;;27.25;37.78;94066.95;828325;71;29968;-78
2021/07/02 17:01:11;;;;;;;5.97;5.47;;;;;;;27.14;39.02;87968.30;827939;71;30865;-76
2021/07/02 17:16:08;;;;;;;6.03;5.73;;;;;;;;;;834047;71;29670;-78
2021/07/02 17:31:15;;;;;;;6.27;5.87;;;;;;;27.00;40.26;94089.56;827545;71;31671;-76
2021/07/02 17:46:19;;;;;;;7.03;6.63;;;;;;;26.86;41.85;94091.08;827412;71;32043;-78
2021/07/02 18:01:08;;;;;;;8.20;7.60;;;;;;;;;;828362;71;29278;-76
2021/07/02 18:16:13;;;;;;;13.70;12.50;;;;;;;;;;834080;71;31962;-77
2021/07/02 18:31:15;;;;;;;8.23;7.60;;;;;;;25.39;43.12;94113.93;834061;71;31726;-76
2021/07/02 18:46:15;;;;;;;7.97;6.73;;;;;;;25.38;44.28;94134.47;827474;71;32625;-81
2021/07/02 19:01:15;;;;;;;7.33;6.73;;;;;;;25.03;43.96;94162.21;827380;71;31708;-82
2021/07/02 19:16:10;;;;;;;5.40;4.90;;;;;;;24.58;44.35;94182.23;834237;71;29276;-78
2021/07/02 19:31:21;;;;;;;5.90;5.03;;;;;;;24.39;45.25;94192.77;827484;71;31736;-76
2021/07/02 19:46:10;;;;;;;5.50;5.10;;;;;;;25.02;45.36;94186.95;834012;71;29236;-78
2021/07/02 20:01:15;;;;;;;6.37;5.90;;;;;;;25.45;44.50;94179.36;823619;71;32691;-79
2021/07/02 20:16:10;;;;;;;5.57;5.00;;;;;;;25.75;45.64;94180.14;828580;71;29317;-75
2021/07/02 20:31:13;;;;;;;5.80;5.27;;;;;;;25.63;44.99;94173.88;825017;71;31533;-76
2021/07/02 20:46:17;;;;;;;4.50;4.30;;;;;;;25.33;45.30;94169.81;829288;71;31778;-76
2021/07/02 21:16:15;;;;;;;4.60;4.30;;;;;;;25.25;44.50;94173.68;833674;71;32696;-76
2021/07/02 21:31:09;;;;;;;4.30;4.10;;;;;;;25.19;44.40;94189.39;828527;71;30248;-79
2021/07/02 21:46:13;;;;;;;4.43;4.23;;;;;;;25.15;44.15;94190.73;834229;71;31997;-78
2021/07/02 22:01:14;;;;;;;4.30;4.10;;;;;;;24.82;43.71;94175.09;833991;71;32621;-78
2021/07/02 22:16:14;;;;;;;4.37;4.17;;;;;;;25.07;44.00;94188.47;827850;71;32649;-78
2021/07/02 22:31:15;;;;;;;4.33;4.13;;;;;;;25.06;44.04;94184.24;833892;71;33235;-80
2021/07/02 22:46:09;;;;;;;4.63;4.43;;;;;;;24.87;44.16;94183.52;834850;71;30219;-78
2021/07/02 23:01:08;;;;;;;4.20;4.00;;;;;;;24.94;44.24;94183.52;829094;71;29700;-77
2021/07/02 23:16:08;;;;;;;4.17;3.97;;;;;;;25.01;44.06;94168.55;828398;71;29777;-77
2021/07/02 23:31:12;;;;;;;3.90;3.70;;;;;;;24.71;44.58;94179.14;828364;71;32052;-78
2021/07/02 23:46:12;;;;;;;3.67;3.47;;;;;;;24.69;44.71;94167.45;828289;71;29782;-79
